Time;durP1;ratioP1;P1;durP2;ratioP2;P2;SDS_P1;SDS_P2;PMS_P1;PMS_P2;Temp;Humidity;BMP_temperature;BMP_pressure;BME280_temperature;BME280_humidity;BME280_pressure;Samples;Min_cycle;Max_cycle;Signal;HPM_P1;HPM_P2
2022/09/08 00:00:40;;;;;;;6.25;3.80;;;;;;;15.14;nan;-24239.22;5043085;28;20178;-75
2022/09/08 00:03:10;;;;;;;6.18;4.22;;;;;;;14.87;nan;-24231.81;5035493;28;20202;-73
2022/09/08 00:05:43;;;;;;;6.35;3.75;;;;;;;14.90;nan;-24232.63;5044916;28;20592;-75
2022/09/08 00:08:09;;;;;;;6.18;4.20;;;;;;;14.75;nan;-24228.56;5039696;28;20658;-74
2022/09/08 00:10:36;;;;;;;5.65;3.45;;;;;;;14.99;nan;-24235.16;5041240;28;20536;-75
2022/09/08 00:13:02;;;;;;;5.35;3.58;;;;;;;14.74;nan;-24228.16;5046346;28;20204;-75
2022/09/08 00:15:28;;;;;;;5.28;3.75;;;;;;;14.98;nan;-24234.88;5039816;28;20666;-74
2022/09/08 00:17:54;;;;;;;4.38;3.47;;;;;;;14.95;nan;-24234.03;5043252;28;20274;-75
2022/09/08 00:20:20;;;;;;;5.68;3.58;;;;;;;14.89;nan;-24232.38;5037598;28;20302;-75
2022/09/08 00:22:45;;;;;;;6.82;4.20;;;;;;;14.85;nan;-24231.25;5045430;28;20209;-75
2022/09/08 00:25:11;;;;;;;9.15;4.28;;;;;;;14.55;nan;-24222.97;5041466;28;20234;-75
2022/09/08 00:27:36;;;;;;;6.35;3.70;;;;;;;14.88;nan;-24232.22;5049638;28;20237;-75
2022/09/08 00:30:02;;;;;;;6.07;3.63;;;;;;;14.84;nan;-24231.09;5037972;28;20187;-73
2022/09/08 00:32:28;;;;;;;5.80;3.97;;;;;;;14.57;nan;-24223.53;5044901;28;20266;-73
2022/09/08 00:34:53;;;;;;;5.47;3.92;;;;;;;14.90;nan;-24232.63;5048246;28;20236;-74
2022/09/08 00:37:18;;;;;;;6.22;3.95;;;;;;;14.48;nan;-24221.00;5043372;28;20576;-75
2022/09/08 00:39:44;;;;;;;4.63;3.15;;;;;;;14.89;nan;-24232.50;5042602;28;20550;-74
2022/09/08 00:42:09;;;;;;;5.38;3.90;;;;;;;14.86;nan;-24231.66;5035843;28;20259;-75
2022/09/08 00:44:41;;;;;;;5.90;3.80;;;;;;;14.88;nan;-24232.09;5038958;28;20614;-75
2022/09/08 00:47:28;;;;;;;5.00;3.58;;;;;;;14.89;nan;-24232.50;5040257;28;20736;-74
2022/09/08 00:50:03;;;;;;;5.30;3.35;;;;;;;14.39;nan;-24218.47;5031835;28;20256;-74
2022/09/08 00:52:39;;;;;;;8.65;3.83;;;;;;;14.81;nan;-24230.25;5019868;28;20200;-72
2022/09/08 00:55:07;;;;;;;5.22;3.35;;;;;;;14.37;nan;-24218.06;5045315;28;20608;-72
2022/09/08 00:57:33;;;;;;;6.03;3.63;;;;;;;14.66;nan;-24226.06;5041961;28;20178;-72
2022/09/08 00:59:59;;;;;;;9.70;3.97;;;;;;;14.47;nan;-24220.88;5037809;28;20257;-73
2022/09/08 01:02:26;;;;;;;8.70;3.42;;;;;;;14.46;nan;-24220.44;5040281;28;20179;-73
2022/09/08 01:04:59;;;;;;;6.00;3.60;;;;;;;14.24;nan;-24214.28;5037577;28;20716;-72
2022/09/08 01:13:27;;;;;;;6.10;3.70;;;;;;;14.14;nan;-24211.59;5032516;28;20277;-74
2022/09/08 01:15:55;;;;;;;6.63;4.00;;;;;;;14.02;nan;-24208.25;5039954;28;20194;-72
2022/09/08 01:18:20;;;;;;;9.75;4.57;;;;;;;14.31;nan;-24216.22;5045870;28;20548;-74
2022/09/08 01:21:01;;;;;;;5.05;3.70;;;;;;;13.95;nan;-24206.28;5042151;28;20224;-73
2022/09/08 01:23:39;;;;;;;7.65;3.88;;;;;;;14.02;nan;-24208.38;5044451;28;20197;-73
2022/09/08 01:26:17;;;;;;;6.20;3.80;;;;;;;13.92;nan;-24205.44;5039635;28;20217;-73
2022/09/08 01:28:48;;;;;;;5.35;3.45;;;;;;;13.90;nan;-24204.88;5036748;28;20650;-72
2022/09/08 01:31:13;;;;;;;6.20;4.22;;;;;;;14.00;nan;-24207.69;5040751;28;20184;-74
2022/09/08 01:33:40;;;;;;;6.63;4.07;;;;;;;13.84;nan;-24203.31;5036799;28;20245;-72
2022/09/08 01:36:10;;;;;;;6.18;3.78;;;;;;;14.17;nan;-24212.44;5041676;28;20220;-73
2022/09/08 01:38:36;;;;;;;5.22;3.75;;;;;;;13.95;nan;-24206.41;5041219;28;20650;-73
2022/09/08 01:41:01;;;;;;;5.00;3.67;;;;;;;14.15;nan;-24212.03;5038491;28;20246;-74
2022/09/08 01:43:27;;;;;;;4.95;3.78;;;;;;;14.25;nan;-24214.69;5038723;28;20639;-74
2022/09/08 01:45:55;;;;;;;6.43;4.15;;;;;;;14.06;nan;-24209.50;5030326;28;20254;-73
2022/09/08 01:48:21;;;;;;;10.82;4.30;;;;;;;13.90;nan;-24204.88;5038304;28;20214;-73
2022/09/08 01:50:46;;;;;;;6.18;4.13;;;;;;;13.35;nan;-24189.56;5040519;28;20183;-72
2022/09/08 01:53:12;;;;;;;6.57;4.25;;;;;;;14.02;nan;-24208.38;5054845;28;20198;-74
2022/09/08 01:55:37;;;;;;;6.40;3.88;;;;;;;14.27;nan;-24215.25;5040325;28;20638;-72
2022/09/08 01:58:03;;;;;;;4.78;3.85;;;;;;;14.26;nan;-24214.97;5041275;28;20651;-72
2022/09/08 02:00:28;;;;;;;6.68;4.50;;;;;;;14.29;nan;-24215.69;5042090;28;20187;-74
2022/09/08 02:02:54;;;;;;;6.15;3.80;;;;;;;13.78;nan;-24201.63;5043372;28;20179;-72
2022/09/08 02:05:19;;;;;;;4.88;3.17;;;;;;;13.91;nan;-24205.16;5040390;28;20216;-74
2022/09/08 02:07:45;;;;;;;8.35;4.47;;;;;;;13.82;nan;-24202.78;5047637;28;20178;-74
2022/09/08 02:10:10;;;;;;;6.80;3.70;;;;;;;14.13;nan;-24211.47;5045404;28;20227;-75
2022/09/08 02:12:36;;;;;;;9.27;4.05;;;;;;;13.71;nan;-24199.69;5044134;28;20174;-73
2022/09/08 02:15:02;;;;;;;6.38;4.35;;;;;;;13.89;nan;-24204.59;5033987;28;20294;-74
2022/09/08 02:17:28;;;;;;;4.35;3.70;;;;;;;14.12;nan;-24211.19;5042950;28;20198;-73
2022/09/08 02:19:54;;;;;;;7.32;4.30;;;;;;;14.10;nan;-24210.63;5043088;28;20257;-73
2022/09/08 02:22:20;;;;;;;7.68;4.80;;;;;;;13.81;nan;-24202.50;5038070;28;20187;-73
2022/09/08 02:24:45;;;;;;;7.32;4.05;;;;;;;13.72;nan;-24199.97;5043969;28;20237;-74
2022/09/08 02:27:10;;;;;;;8.82;4.50;;;;;;;13.98;nan;-24207.25;5039314;28;20191;-74
2022/09/08 02:29:36;;;;;;;7.50;4.65;;;;;;;13.79;nan;-24201.78;5036063;28;20610;-74
2022/09/08 02:32:03;;;;;;;4.95;3.88;;;;;;;13.78;nan;-24201.50;5048814;28;20175;-74
2022/09/08 02:34:28;;;;;;;6.57;4.18;;;;;;;13.77;nan;-24201.38;5037879;28;20198;-74
2022/09/08 02:36:54;;;;;;;7.20;4.05;;;;;;;14.03;nan;-24208.66;5040270;28;20635;-74
2022/09/08 02:39:20;;;;;;;9.90;3.70;;;;;;;13.66;nan;-24198.41;5037675;28;20187;-73
2022/09/08 02:41:46;;;;;;;7.80;4.53;;;;;;;13.71;nan;-24199.69;5038598;28;20180;-73
2022/09/08 02:44:12;;;;;;;8.68;4.82;;;;;;;13.53;nan;-24194.63;5060828;28;20731;-75
2022/09/08 02:46:41;;;;;;;8.23;4.63;;;;;;;13.94;nan;-24206.00;5051179;28;20673;-73
2022/09/08 02:49:10;;;;;;;6.88;3.97;;;;;;;13.77;nan;-24201.22;5043478;28;20305;-73
2022/09/08 02:51:36;;;;;;;6.97;4.43;;;;;;;14.14;nan;-24211.75;5050234;28;20178;-73
2022/09/08 02:54:02;;;;;;;9.52;4.97;;;;;;;14.05;nan;-24209.22;5050011;28;20569;-73
2022/09/08 02:56:27;;;;;;;6.80;4.13;;;;;;;14.13;nan;-24211.31;5044427;28;20184;-72
2022/09/08 02:58:54;;;;;;;6.32;4.47;;;;;;;13.95;nan;-24206.28;5044615;28;20495;-72
2022/09/08 03:01:20;;;;;;;7.40;4.53;;;;;;;13.90;nan;-24205.00;5046871;28;20241;-72
2022/09/08 03:03:46;;;;;;;6.63;4.80;;;;;;;13.61;nan;-24197.00;5047336;28;20261;-74
2022/09/08 03:06:12;;;;;;;7.50;4.47;;;;;;;13.94;nan;-24206.13;5048089;28;20523;-72
2022/09/08 03:08:37;;;;;;;6.25;3.83;;;;;;;13.57;nan;-24195.75;5059701;28;20635;-75
2022/09/08 03:11:04;;;;;;;10.52;4.70;;;;;;;13.49;nan;-24193.50;5045193;28;20217;-74
2022/09/08 03:13:30;;;;;;;7.50;4.70;;;;;;;13.66;nan;-24198.41;5042279;28;20583;-73
2022/09/08 03:15:55;;;;;;;7.15;4.20;;;;;;;13.48;nan;-24193.22;5037691;28;20188;-74
2022/09/08 03:18:21;;;;;;;7.63;4.88;;;;;;;13.48;nan;-24193.34;5043634;28;20264;-74
2022/09/08 03:20:47;;;;;;;16.05;4.78;;;;;;;13.86;nan;-24203.75;5038516;28;20219;-74
2022/09/08 03:23:19;;;;;;;10.25;4.15;;;;;;;13.50;nan;-24193.78;5035982;28;20237;-72
2022/09/08 03:25:46;;;;;;;7.63;4.22;;;;;;;13.80;nan;-24202.06;5035992;28;20192;-73
2022/09/08 03:28:19;;;;;;;5.50;3.78;;;;;;;13.45;nan;-24192.38;5036832;28;20598;-73
2022/09/08 03:30:45;;;;;;;7.88;4.38;;;;;;;13.58;nan;-24196.16;5035970;28;20260;-73
2022/09/08 03:33:11;;;;;;;8.55;5.22;;;;;;;13.76;nan;-24201.09;5052062;28;20249;-73
2022/09/08 03:35:36;;;;;;;7.10;4.57;;;;;;;13.39;nan;-24190.84;5036212;28;20187;-72
2022/09/08 03:38:02;;;;;;;7.60;4.55;;;;;;;13.89;nan;-24204.59;5035943;28;20183;-74
2022/09/08 03:40:28;;;;;;;6.25;4.03;;;;;;;13.65;nan;-24198.00;5035151;28;20676;-74
2022/09/08 03:42:54;;;;;;;7.85;4.43;;;;;;;13.53;nan;-24194.63;5037600;28;20186;-72
2022/09/08 03:45:20;;;;;;;7.82;4.05;;;;;;;13.65;nan;-24198.00;5039836;28;20218;-75
2022/09/08 03:47:45;;;;;;;6.10;3.90;;;;;;;13.67;nan;-24198.56;5034346;28;20189;-74
2022/09/08 03:50:15;;;;;;;6.35;4.03;;;;;;;13.48;nan;-24193.22;5037213;28;20170;-74
2022/09/08 03:52:40;;;;;;;5.70;4.15;;;;;;;13.57;nan;-24195.88;5036522;28;20190;-75
2022/09/08 03:55:08;;;;;;;6.65;4.43;;;;;;;13.70;nan;-24199.41;5034333;28;20190;-72
2022/09/08 03:57:33;;;;;;;5.78;4.38;;;;;;;13.60;nan;-24196.72;5037390;28;20572;-73
2022/09/08 04:00:00;;;;;;;6.03;4.28;;;;;;;13.25;nan;-24187.03;5038297;28;20183;-73
2022/09/08 04:02:27;;;;;;;7.80;4.57;;;;;;;13.68;nan;-24198.84;5035777;28;20207;-72
2022/09/08 04:04:55;;;;;;;6.13;3.75;;;;;;;13.37;nan;-24190.13;5037441;28;20218;-72
2022/09/08 04:07:23;;;;;;;7.40;4.40;;;;;;;13.61;nan;-24196.88;5035921;28;20676;-74
2022/09/08 04:09:50;;;;;;;9.77;3.95;;;;;;;13.77;nan;-24201.38;5035976;28;20188;-73
2022/09/08 04:12:15;;;;;;;7.07;4.35;;;;;;;13.72;nan;-24199.97;5036575;28;20189;-73
2022/09/08 04:14:41;;;;;;;7.20;3.83;;;;;;;13.50;nan;-24193.78;5035569;28;20183;-77
2022/09/08 04:17:07;;;;;;;5.53;3.58;;;;;;;13.81;nan;-24202.34;5037033;28;20241;-76
2022/09/08 04:19:33;;;;;;;9.95;4.07;;;;;;;13.53;nan;-24194.63;5035797;28;20361;-76
2022/09/08 04:21:58;;;;;;;7.93;4.00;;;;;;;13.52;nan;-24194.34;5036616;28;20423;-75
2022/09/08 04:24:24;;;;;;;9.35;4.28;;;;;;;13.63;nan;-24197.44;5037169;28;21352;-76
2022/09/08 04:26:49;;;;;;;6.47;4.15;;;;;;;13.92;nan;-24205.44;5034855;28;20191;-75
2022/09/08 04:29:16;;;;;;;6.65;4.03;;;;;;;14.11;nan;-24210.91;5036196;28;20564;-75
2022/09/08 04:31:42;;;;;;;7.50;4.25;;;;;;;14.34;nan;-24217.06;5037361;28;20188;-74
2022/09/08 04:34:08;;;;;;;5.53;3.70;;;;;;;14.57;nan;-24223.53;5039340;28;20176;-75
2022/09/08 04:36:34;;;;;;;6.70;3.90;;;;;;;14.27;nan;-24215.25;5044688;28;20179;-74
2022/09/08 04:39:00;;;;;;;6.60;3.92;;;;;;;14.76;nan;-24228.84;5045146;28;20186;-74
2022/09/08 04:41:28;;;;;;;5.22;3.70;;;;;;;14.75;nan;-24228.56;5045702;28;20208;-72
2022/09/08 04:43:55;;;;;;;8.38;4.25;;;;;;;14.54;nan;-24222.69;5045923;28;20698;-74
2022/09/08 04:46:21;;;;;;;7.28;4.13;;;;;;;14.92;nan;-24233.34;5039300;28;20215;-73
2022/09/08 04:48:47;;;;;;;5.88;3.65;;;;;;;14.66;nan;-24226.06;5032504;28;20265;-74
2022/09/08 04:51:16;;;;;;;5.72;3.28;;;;;;;15.12;nan;-24238.66;5032598;28;20645;-75
2022/09/08 04:53:42;;;;;;;5.63;3.53;;;;;;;15.15;nan;-24239.50;5040499;28;20568;-74
2022/09/08 04:56:09;;;;;;;5.15;3.60;;;;;;;15.28;nan;-24243.16;5033741;28;20179;-72
2022/09/08 04:58:37;;;;;;;6.53;3.72;;;;;;;15.56;nan;-24251.00;5032395;28;20210;-72
2022/09/08 05:01:03;;;;;;;5.13;3.45;;;;;;;15.53;nan;-24250.16;5032661;28;20191;-72
2022/09/08 05:03:29;;;;;;;8.02;3.88;;;;;;;15.58;nan;-24251.41;5033756;28;20216;-76
2022/09/08 05:05:54;;;;;;;8.50;3.70;;;;;;;16.02;nan;-24263.59;5037239;28;20242;-74
2022/09/08 05:08:20;;;;;;;5.80;3.47;;;;;;;15.86;nan;-24259.38;5048031;28;20210;-74
2022/09/08 05:10:48;;;;;;;6.47;3.42;;;;;;;16.18;nan;-24268.06;5035770;28;20654;-72
2022/09/08 05:13:13;;;;;;;6.30;3.40;;;;;;;16.24;nan;-24269.75;5042807;28;20285;-74
2022/09/08 05:15:39;;;;;;;5.00;3.33;;;;;;;16.13;nan;-24266.66;5040761;28;20258;-74
2022/09/08 05:18:04;;;;;;;7.97;3.63;;;;;;;16.58;nan;-24279.25;5041298;28;20183;-74
2022/09/08 05:20:30;;;;;;;8.95;3.60;;;;;;;16.69;nan;-24282.31;5042073;28;20227;-74
2022/09/08 05:23:05;;;;;;;5.13;3.38;;;;;;;16.61;nan;-24279.94;5032025;28;20329;-74
2022/09/08 05:25:30;;;;;;;8.98;4.15;;;;;;;16.85;nan;-24286.66;5032029;28;20194;-73
2022/09/08 05:27:56;;;;;;;6.13;3.80;;;;;;;16.94;nan;-24289.16;5040423;28;20577;-73
2022/09/08 05:30:21;;;;;;;5.88;3.65;;;;;;;16.60;nan;-24279.81;5036575;28;20202;-76
2022/09/08 05:32:47;;;;;;;7.15;4.43;;;;;;;17.03;nan;-24291.69;5043139;28;20569;-73
2022/09/08 05:35:13;;;;;;;6.35;4.13;;;;;;;17.14;nan;-24294.75;5040473;28;20186;-73
2022/09/08 05:37:39;;;;;;;9.30;4.07;;;;;;;17.56;nan;-24306.34;5042009;28;20265;-73
2022/09/08 05:40:05;;;;;;;7.10;4.00;;;;;;;17.61;nan;-24307.75;5031694;28;20273;-75
2022/09/08 05:42:30;;;;;;;5.80;3.83;;;;;;;17.21;nan;-24296.56;5031441;28;20270;-75
2022/09/08 05:44:56;;;;;;;5.63;3.63;;;;;;;17.64;nan;-24308.56;5039176;28;20210;-75
2022/09/08 05:47:21;;;;;;;7.00;4.47;;;;;;;17.87;nan;-24314.84;5047732;28;20190;-75
2022/09/08 05:49:47;;;;;;;9.00;4.60;;;;;;;18.07;nan;-24320.44;5036290;28;20563;-74
2022/09/08 05:52:13;;;;;;;5.68;4.18;;;;;;;17.79;nan;-24312.63;5029828;28;20187;-75
2022/09/08 05:54:38;;;;;;;7.05;3.92;;;;;;;17.65;nan;-24308.72;5035397;28;20182;-75
2022/09/08 05:57:05;;;;;;;6.97;3.95;;;;;;;17.75;nan;-24311.50;5041671;28;20224;-75
2022/09/08 05:59:30;;;;;;;8.43;4.07;;;;;;;18.16;nan;-24322.66;5031298;28;20186;-75
2022/09/08 06:01:56;;;;;;;5.15;3.60;;;;;;;18.54;nan;-24333.38;5031508;28;20171;-74
2022/09/08 06:04:21;;;;;;;5.90;4.22;;;;;;;18.81;nan;-24340.78;5031281;28;20278;-75
2022/09/08 06:06:47;;;;;;;5.93;3.85;;;;;;;19.16;nan;-24350.38;5030053;28;20266;-76
2022/09/08 06:09:13;;;;;;;5.50;3.40;;;;;;;19.33;nan;-24354.97;5032217;28;20167;-74
2022/09/08 06:11:39;;;;;;;5.00;3.20;;;;;;;19.35;nan;-24355.66;5031762;28;20207;-76
2022/09/08 06:14:05;;;;;;;5.82;3.88;;;;;;;19.42;nan;-24357.59;5032013;28;20679;-75
2022/09/08 06:16:32;;;;;;;5.65;3.13;;;;;;;19.71;nan;-24365.41;5033106;28;20606;-75
2022/09/08 06:18:59;;;;;;;6.85;4.20;;;;;;;19.76;nan;-24366.94;5035711;28;20619;-75
2022/09/08 06:21:28;;;;;;;5.72;3.78;;;;;;;19.74;nan;-24366.22;5052642;28;20231;-74
2022/09/08 06:23:56;;;;;;;6.60;3.83;;;;;;;19.91;nan;-24370.97;5035505;28;20681;-77
2022/09/08 06:26:29;;;;;;;5.35;3.50;;;;;;;20.09;nan;-24375.81;5035355;28;20206;-76
2022/09/08 06:29:13;;;;;;;5.10;3.10;;;;;;;20.15;nan;-24377.47;5035678;28;20183;-75
2022/09/08 06:32:01;;;;;;;5.75;3.40;;;;;;;20.19;nan;-24378.75;5035686;28;20183;-74
2022/09/08 06:34:30;;;;;;;4.65;3.10;;;;;;;19.90;nan;-24370.53;5045311;28;20275;-77
2022/09/08 06:37:02;;;;;;;5.47;3.40;;;;;;;20.06;nan;-24375.13;5034897;28;20215;-77
2022/09/08 06:39:34;;;;;;;7.78;3.85;;;;;;;19.80;nan;-24368.03;5034790;28;20174;-74
2022/09/08 06:42:16;;;;;;;5.93;3.60;;;;;;;19.76;nan;-24366.94;5034485;28;20253;-75
2022/09/08 06:44:44;;;;;;;9.10;3.42;;;;;;;20.04;nan;-24374.44;5034837;28;20578;-75
2022/09/08 06:47:18;;;;;;;4.38;3.10;;;;;;;19.96;nan;-24372.34;5033199;28;20245;-75
2022/09/08 06:49:43;;;;;;;6.47;3.35;;;;;;;19.69;nan;-24364.84;5036588;28;20643;-75
2022/09/08 06:52:28;;;;;;;8.05;2.85;;;;;;;19.96;nan;-24372.22;5043568;28;20194;-75
2022/09/08 06:55:18;;;;;;;4.93;3.22;;;;;;;19.88;nan;-24370.13;5034261;28;20612;-75
2022/09/08 06:58:06;;;;;;;5.43;3.53;;;;;;;20.66;nan;-24391.50;5041459;28;20578;-63
2022/09/08 07:00:53;;;;;;;7.10;3.25;;;;;;;21.02;nan;-24401.34;5040344;28;20244;-63
2022/09/08 07:03:21;;;;;;;5.30;3.38;;;;;;;20.89;nan;-24397.91;5040295;28;20198;-63
2022/09/08 07:05:59;;;;;;;8.00;3.35;;;;;;;21.15;nan;-24405.09;5037752;28;20305;-63
2022/09/08 07:09:22;;;;;;;5.43;3.28;;;;;;;21.20;nan;-24406.34;5040443;28;20193;-63
2022/09/08 07:11:53;;;;;;;5.10;3.35;;;;;;;21.34;nan;-24410.25;5007537;28;20287;-61
2022/09/08 07:15:04;;;;;;;10.07;3.50;;;;;;;21.36;nan;-24410.78;5015146;28;20294;-63
2022/09/08 07:17:39;;;;;;;5.78;3.58;;;;;;;21.75;nan;-24421.31;5031573;28;20286;-64
2022/09/08 07:20:09;;;;;;;5.68;3.40;;;;;;;21.72;nan;-24420.63;5049264;28;20252;-62
2022/09/08 07:22:50;;;;;;;6.30;3.55;;;;;;;21.49;nan;-24414.25;5045762;28;20189;-61
2022/09/08 07:25:18;;;;;;;5.45;3.50;;;;;;;21.86;nan;-24424.50;5043348;28;20206;-62
2022/09/08 07:27:46;;;;;;;6.60;3.58;;;;;;;21.80;nan;-24422.72;5040071;28;20681;-60
2022/09/08 07:30:15;;;;;;;4.65;3.35;;;;;;;22.09;nan;-24430.75;5044093;28;20199;-62
2022/09/08 07:32:43;;;;;;;5.88;3.30;;;;;;;22.04;nan;-24429.34;5045115;28;20186;-62
2022/09/08 07:35:33;;;;;;;5.05;2.90;;;;;;;22.06;nan;-24429.78;5039902;28;20315;-61
2022/09/08 07:38:05;;;;;;;7.53;3.40;;;;;;;21.46;nan;-24413.56;5036849;28;20214;-62
2022/09/08 07:40:53;;;;;;;4.53;3.17;;;;;;;21.21;nan;-24406.63;5043331;28;20186;-62
2022/09/08 07:43:19;;;;;;;5.45;3.30;;;;;;;21.74;nan;-24421.19;5044930;28;20186;-62
2022/09/08 07:45:53;;;;;;;9.32;4.18;;;;;;;22.08;nan;-24430.47;5044210;28;20203;-61
2022/09/08 07:49:00;;;;;;;4.55;3.10;;;;;;;22.24;nan;-24434.75;5043883;28;20191;-61
2022/09/08 07:51:33;;;;;;;5.65;3.25;;;;;;;22.48;nan;-24441.41;5038562;28;20196;-60
2022/09/08 07:54:11;;;;;;;4.72;3.25;;;;;;;22.82;nan;-24450.81;5038416;28;20202;-62
2022/09/08 07:56:59;;;;;;;7.32;3.65;;;;;;;23.06;nan;-24457.31;5041438;28;20783;-62
2022/09/08 07:59:44;;;;;;;5.40;2.80;;;;;;;22.57;nan;-24443.88;5042183;28;20182;-61
2022/09/08 08:02:56;;;;;;;5.07;3.40;;;;;;;23.01;nan;-24455.78;5039239;28;20732;-62
2022/09/08 08:05:28;;;;;;;4.85;3.40;;;;;;;23.14;nan;-24459.50;5049436;28;20766;-62
2022/09/08 08:07:53;;;;;;;6.80;3.88;;;;;;;23.36;nan;-24465.44;5042451;28;20666;-63
2022/09/08 08:10:25;;;;;;;4.63;3.13;;;;;;;23.62;nan;-24472.63;5039865;28;20187;-62
2022/09/08 08:13:21;;;;;;;6.65;3.42;;;;;;;23.67;nan;-24474.00;5044136;28;20186;-61
2022/09/08 08:15:51;;;;;;;4.80;3.15;;;;;;;24.02;nan;-24483.53;5023760;28;20190;-61
2022/09/08 08:18:26;;;;;;;5.63;3.50;;;;;;;24.00;nan;-24482.84;5044275;28;20187;-62
2022/09/08 08:21:00;;;;;;;6.53;3.60;;;;;;;23.77;nan;-24476.63;5039519;28;20253;-61
2022/09/08 08:23:50;;;;;;;4.97;3.38;;;;;;;23.91;nan;-24480.50;5046040;28;20182;-62
2022/09/08 08:26:27;;;;;;;8.10;3.85;;;;;;;23.84;nan;-24478.44;5041987;28;20624;-61
2022/09/08 08:29:13;;;;;;;6.60;3.90;;;;;;;24.00;nan;-24482.84;5043442;28;20197;-61
2022/09/08 08:31:49;;;;;;;5.45;3.17;;;;;;;24.10;nan;-24485.75;5040436;28;20195;-62
2022/09/08 08:34:29;;;;;;;5.65;3.47;;;;;;;24.35;nan;-24492.50;5037507;28;20270;-63
2022/09/08 08:37:00;;;;;;;5.68;3.45;;;;;;;24.24;nan;-24489.47;5035566;28;20205;-62
2022/09/08 08:39:26;;;;;;;6.93;3.80;;;;;;;24.61;nan;-24499.53;5038617;28;20193;-62
2022/09/08 08:42:29;;;;;;;4.05;2.90;;;;;;;24.49;nan;-24496.22;5037159;28;20187;-62
2022/09/08 08:45:39;;;;;;;5.72;4.00;;;;;;;24.46;nan;-24495.41;5035969;28;20203;-62
2022/09/08 08:48:20;;;;;;;5.38;3.70;;;;;;;24.54;nan;-24497.59;5047276;28;20225;-61
2022/09/08 08:51:08;;;;;;;4.30;3.10;;;;;;;24.92;nan;-24507.94;5037128;28;20270;-62
2022/09/08 08:53:55;;;;;;;4.63;3.58;;;;;;;25.24;nan;-24516.75;5046400;28;20557;-61
2022/09/08 08:56:30;;;;;;;4.00;3.15;;;;;;;24.97;nan;-24509.31;5040652;28;20748;-62
2022/09/08 08:59:17;;;;;;;5.90;3.65;;;;;;;25.35;nan;-24519.78;5036910;28;20193;-61
2022/09/08 09:02:09;;;;;;;3.67;3.10;;;;;;;24.92;nan;-24508.06;5036689;28;20184;-61
2022/09/08 09:05:03;;;;;;;8.05;3.58;;;;;;;25.50;nan;-24523.91;5044956;28;20250;-62
2022/09/08 09:07:53;;;;;;;5.03;3.30;;;;;;;25.43;nan;-24521.84;5042248;28;20228;-62
2022/09/08 09:10:24;;;;;;;5.68;3.67;;;;;;;25.72;nan;-24529.81;5038023;28;20246;-62
2022/09/08 09:13:07;;;;;;;4.07;3.30;;;;;;;25.80;nan;-24532.00;5045720;28;20217;-62
2022/09/08 09:16:11;;;;;;;5.78;3.67;;;;;;;25.63;nan;-24527.19;5035288;28;20189;-61
2022/09/08 09:19:05;;;;;;;4.97;3.40;;;;;;;25.96;nan;-24536.28;5039891;28;20210;-61
2022/09/08 09:21:53;;;;;;;5.25;3.35;;;;;;;25.63;nan;-24527.19;5041766;28;20242;-61
2022/09/08 09:24:22;;;;;;;7.00;3.65;;;;;;;25.25;nan;-24517.00;5037729;28;20203;-62
2022/09/08 09:26:51;;;;;;;4.65;3.42;;;;;;;24.99;nan;-24509.84;5035533;28;20203;-63
2022/09/08 09:29:26;;;;;;;4.70;3.20;;;;;;;24.95;nan;-24508.75;5036644;28;20241;-61
2022/09/08 09:32:10;;;;;;;4.07;3.13;;;;;;;25.46;nan;-24522.78;5042538;28;20175;-63
2022/09/08 09:35:03;;;;;;;6.82;3.25;;;;;;;25.63;nan;-24527.19;5048261;28;20219;-61
2022/09/08 09:37:59;;;;;;;5.05;3.15;;;;;;;25.85;nan;-24533.25;5040126;28;20187;-62
2022/09/08 09:40:46;;;;;;;6.07;3.30;;;;;;;25.26;nan;-24517.16;5044995;28;20194;-61
2022/09/08 09:43:39;;;;;;;4.82;3.42;;;;;;;25.67;nan;-24528.44;5045849;28;20186;-60
2022/09/08 09:46:23;;;;;;;6.15;3.42;;;;;;;25.91;nan;-24534.91;5042383;28;20222;-61
2022/09/08 09:49:26;;;;;;;7.55;3.80;;;;;;;26.18;nan;-24542.31;5031438;28;20218;-62
2022/09/08 09:52:35;;;;;;;4.78;3.55;;;;;;;26.06;nan;-24539.03;5037911;28;20183;-62
2022/09/08 09:55:15;;;;;;;5.93;4.18;;;;;;;26.54;nan;-24551.94;5033448;28;20194;-60
2022/09/08 09:57:59;;;;;;;4.57;3.40;;;;;;;26.58;nan;-24553.19;5035132;28;20657;-65
2022/09/08 10:00:29;;;;;;;5.18;3.60;;;;;;;26.63;nan;-24554.53;5033981;28;20210;-62
2022/09/08 10:02:57;;;;;;;4.03;2.90;;;;;;;26.66;nan;-24555.38;5043777;28;20189;-64
2022/09/08 10:05:40;;;;;;;5.30;3.38;;;;;;;26.52;nan;-24551.38;5039883;28;20237;-63
2022/09/08 10:09:02;;;;;;;4.13;3.50;;;;;;;26.38;nan;-24547.81;5039059;28;20183;-63
2022/09/08 10:11:55;;;;;;;4.38;3.38;;;;;;;26.23;nan;-24543.69;5032755;28;20202;-65
2022/09/08 10:14:32;;;;;;;5.10;3.30;;;;;;;26.07;nan;-24539.31;5039162;28;20209;-62
2022/09/08 10:17:33;;;;;;;5.00;3.53;;;;;;;25.98;nan;-24536.81;5036744;28;20210;-62
2022/09/08 10:20:31;;;;;;;5.63;3.50;;;;;;;26.12;nan;-24540.69;5020882;28;20281;-66
2022/09/08 10:22:57;;;;;;;4.78;3.53;;;;;;;26.04;nan;-24538.47;5033429;28;20888;-61
2022/09/08 10:25:28;;;;;;;5.80;3.60;;;;;;;26.00;nan;-24537.38;5040556;28;20222;-63
2022/09/08 10:27:59;;;;;;;5.10;3.80;;;;;;;26.21;nan;-24543.16;5044060;28;20311;-64
2022/09/08 10:30:44;;;;;;;6.03;4.10;;;;;;;26.35;nan;-24547.00;5037602;28;20240;-61
2022/09/08 10:33:27;;;;;;;5.50;3.75;;;;;;;26.51;nan;-24551.13;5038254;28;20529;-61
2022/09/08 10:36:17;;;;;;;6.78;3.88;;;;;;;26.47;nan;-24550.00;5029338;28;20215;-63
2022/09/08 10:38:48;;;;;;;6.43;3.70;;;;;;;26.45;nan;-24549.59;5042354;28;20207;-62
2022/09/08 10:41:47;;;;;;;8.98;4.10;;;;;;;26.19;nan;-24542.59;5035501;28;20274;-61
2022/09/08 10:44:57;;;;;;;7.03;4.15;;;;;;;26.47;nan;-24550.16;5039825;28;20225;-64
2022/09/08 10:47:50;;;;;;;5.82;4.18;;;;;;;26.27;nan;-24544.66;5012875;28;20195;-63
2022/09/08 10:50:24;;;;;;;4.78;3.60;;;;;;;26.33;nan;-24546.44;5011845;28;20293;-62
2022/09/08 10:53:10;;;;;;;4.68;3.55;;;;;;;26.34;nan;-24546.72;5030564;28;20689;-61
2022/09/08 10:55:59;;;;;;;8.45;3.83;;;;;;;26.49;nan;-24550.69;5036433;28;20633;-64
2022/09/08 10:58:50;;;;;;;6.32;3.92;;;;;;;26.36;nan;-24547.28;5029130;28;20259;-62
2022/09/08 11:01:27;;;;;;;5.10;3.45;;;;;;;26.51;nan;-24551.25;5040631;28;20255;-64
2022/09/08 11:04:37;;;;;;;5.60;3.97;;;;;;;26.24;nan;-24543.97;5036896;28;20187;-64
2022/09/08 11:07:30;;;;;;;6.43;3.67;;;;;;;26.30;nan;-24545.63;5040766;28;20681;-63
2022/09/08 11:10:13;;;;;;;6.18;3.80;;;;;;;26.18;nan;-24542.31;5042889;28;20217;-62
2022/09/08 11:13:13;;;;;;;5.68;3.72;;;;;;;26.59;nan;-24553.31;5042724;28;20662;-61
2022/09/08 11:16:12;;;;;;;4.95;3.60;;;;;;;26.90;nan;-24561.69;5034980;28;20310;-63
2022/09/08 11:18:59;;;;;;;5.10;3.80;;;;;;;27.25;nan;-24571.28;5032980;28;20213;-63
2022/09/08 11:21:29;;;;;;;8.20;4.20;;;;;;;27.05;nan;-24565.94;5032960;28;20339;-64
2022/09/08 11:24:21;;;;;;;5.78;4.05;;;;;;;27.18;nan;-24569.50;5043287;28;20176;-61
2022/09/08 11:27:21;;;;;;;5.18;3.65;;;;;;;27.13;nan;-24568.00;5035838;28;20215;-61
2022/09/08 11:30:17;;;;;;;8.95;4.10;;;;;;;27.22;nan;-24570.47;5029980;28;20229;-62
2022/09/08 11:33:14;;;;;;;6.47;4.10;;;;;;;27.44;nan;-24576.50;5024392;28;20663;-62
2022/09/08 11:36:06;;;;;;;7.45;4.25;;;;;;;27.08;nan;-24566.75;5038304;28;20624;-62
2022/09/08 11:39:00;;;;;;;6.22;3.83;;;;;;;27.42;nan;-24575.94;5037038;28;20187;-60
2022/09/08 11:41:48;;;;;;;6.38;4.25;;;;;;;27.32;nan;-24573.22;5045056;28;20175;-61
2022/09/08 11:44:42;;;;;;;5.72;4.40;;;;;;;27.08;nan;-24566.63;5037995;28;20598;-63
2022/09/08 11:47:32;;;;;;;8.75;3.67;;;;;;;26.99;nan;-24564.28;5046620;28;20176;-61
2022/09/08 11:50:16;;;;;;;5.05;3.60;;;;;;;27.37;nan;-24574.44;5045813;28;20187;-63
2022/09/08 11:52:50;;;;;;;7.28;3.70;;;;;;;27.17;nan;-24569.22;5038494;28;20258;-63
2022/09/08 11:55:38;;;;;;;4.78;3.65;;;;;;;26.81;nan;-24559.50;5033532;28;20572;-61
2022/09/08 11:58:31;;;;;;;6.10;4.20;;;;;;;26.96;nan;-24563.47;5042664;28;20274;-63
2022/09/08 12:01:02;;;;;;;5.70;4.10;;;;;;;26.95;nan;-24563.19;5033836;28;20257;-63
2022/09/08 12:04:00;;;;;;;7.03;3.85;;;;;;;26.84;nan;-24560.16;5040187;28;20178;-63
2022/09/08 12:06:52;;;;;;;4.78;3.38;;;;;;;27.38;nan;-24574.84;5040195;28;20263;-62
2022/09/08 12:09:34;;;;;;;6.18;3.67;;;;;;;27.60;nan;-24580.88;5043198;28;20187;-63
2022/09/08 12:12:22;;;;;;;6.35;4.10;;;;;;;27.51;nan;-24578.28;5044395;28;20190;-63
2022/09/08 12:15:19;;;;;;;4.65;3.65;;;;;;;27.60;nan;-24580.75;5035336;28;20237;-62
2022/09/08 12:17:56;;;;;;;6.07;3.72;;;;;;;27.53;nan;-24578.81;5042198;28;20179;-63
2022/09/08 12:20:24;;;;;;;4.70;3.45;;;;;;;27.93;nan;-24589.78;5031218;28;20705;-64
2022/09/08 12:23:25;;;;;;;4.80;3.92;;;;;;;27.93;nan;-24589.66;5042012;28;20183;-64